sensor_id;sensor_type;location;lat;lon;timestamp;temperature;humidity
11840;DHT22;5979;50.800;4.904;2023-12-20T00:00:59;6.80;99.90
11840;DHT22;5979;50.800;4.904;2023-12-20T00:03:25;6.80;99.90
11840;DHT22;5979;50.800;4.904;2023-12-20T00:05:51;6.70;99.90
11840;DHT22;5979;50.800;4.904;2023-12-20T00:08:17;6.70;99.90
11840;DHT22;5979;50.800;4.904;2023-12-20T00:10:45;6.70;99.90
11840;DHT22;5979;50.800;4.904;2023-12-20T00:13:11;6.70;99.90
11840;DHT22;5979;50.800;4.904;2023-12-20T00:15:37;6.60;99.90
11840;DHT22;5979;50.800;4.904;2023-12-20T00:18:03;6.60;99.90
11840;DHT22;5979;50.800;4.904;2023-12-20T00:20:28;6.50;99.90
11840;DHT22;5979;50.800;4.904;2023-12-20T00:22:56;6.50;99.90
11840;DHT22;5979;50.800;4.904;2023-12-20T00:25:24;6.40;99.90
11840;DHT22;5979;50.800;4.904;2023-12-20T00:27:49;6.40;99.90
11840;DHT22;5979;50.800;4.904;2023-12-20T00:30:15;6.40;99.90
11840;DHT22;5979;50.800;4.904;2023-12-20T00:32:41;6.30;99.90
11840;DHT22;5979;50.800;4.904;2023-12-20T00:35:15;6.30;99.90
11840;DHT22;5979;50.800;4.904;2023-12-20T00:37:42;6.30;99.90
11840;DHT22;5979;50.800;4.904;2023-12-20T00:40:08;6.30;99.90
11840;DHT22;5979;50.800;4.904;2023-12-20T00:42:34;6.20;99.90
11840;DHT22;5979;50.800;4.904;2023-12-20T00:45:00;6.20;99.90
11840;DHT22;5979;50.800;4.904;2023-12-20T00:47:26;6.20;99.90
11840;DHT22;5979;50.800;4.904;2023-12-20T00:49:51;6.20;99.90
11840;DHT22;5979;50.800;4.904;2023-12-20T00:52:18;6.30;99.90
11840;DHT22;5979;50.800;4.904;2023-12-20T00:54:44;6.40;99.90
11840;DHT22;5979;50.800;4.904;2023-12-20T00:57:10;6.40;99.90
11840;DHT22;5979;50.800;4.904;2023-12-20T00:59:36;6.40;99.90
11840;DHT22;5979;50.800;4.904;2023-12-20T01:02:02;6.40;99.90
11840;DHT22;5979;50.800;4.904;2023-12-20T01:04:28;6.40;99.90
11840;DHT22;5979;50.800;4.904;2023-12-20T01:06:53;6.30;99.90
11840;DHT22;5979;50.800;4.904;2023-12-20T01:09:19;6.30;99.90
11840;DHT22;5979;50.800;4.904;2023-12-20T01:11:45;6.20;99.90
11840;DHT22;5979;50.800;4.904;2023-12-20T01:14:13;6.20;99.90
11840;DHT22;5979;50.800;4.904;2023-12-20T01:16:39;6.10;99.90
11840;DHT22;5979;50.800;4.904;2023-12-20T01:19:04;6.10;99.90
11840;DHT22;5979;50.800;4.904;2023-12-20T01:21:30;6.10;99.90
11840;DHT22;5979;50.800;4.904;2023-12-20T01:23:56;6.10;99.90
11840;DHT22;5979;50.800;4.904;2023-12-20T01:26:21;6.10;99.90
11840;DHT22;5979;50.800;4.904;2023-12-20T01:28:47;6.00;99.90
11840;DHT22;5979;50.800;4.904;2023-12-20T01:31:13;6.00;99.90
11840;DHT22;5979;50.800;4.904;2023-12-20T01:33:42;6.00;99.90
11840;DHT22;5979;50.800;4.904;2023-12-20T01:36:08;6.00;99.90
11840;DHT22;5979;50.800;4.904;2023-12-20T01:38:34;6.00;99.90
11840;DHT22;5979;50.800;4.904;2023-12-20T01:41:00;5.90;99.90
11840;DHT22;5979;50.800;4.904;2023-12-20T01:43:26;5.90;99.90
11840;DHT22;5979;50.800;4.904;2023-12-20T01:45:51;5.90;99.90
11840;DHT22;5979;50.800;4.904;2023-12-20T01:48:18;5.80;99.90
11840;DHT22;5979;50.800;4.904;2023-12-20T01:50:45;5.80;99.90
11840;DHT22;5979;50.800;4.904;2023-12-20T01:53:12;5.80;99.90
11840;DHT22;5979;50.800;4.904;2023-12-20T01:55:40;5.80;99.90
11840;DHT22;5979;50.800;4.904;2023-12-20T01:58:07;5.70;99.90
11840;DHT22;5979;50.800;4.904;2023-12-20T02:00:34;5.70;99.90
11840;DHT22;5979;50.800;4.904;2023-12-20T02:03:04;5.70;99.90
11840;DHT22;5979;50.800;4.904;2023-12-20T02:05:31;5.70;99.90
11840;DHT22;5979;50.800;4.904;2023-12-20T02:07:57;5.70;99.90
11840;DHT22;5979;50.800;4.904;2023-12-20T02:10:23;5.70;99.90
11840;DHT22;5979;50.800;4.904;2023-12-20T02:12:49;5.60;99.90
11840;DHT22;5979;50.800;4.904;2023-12-20T02:15:15;5.60;99.90
11840;DHT22;5979;50.800;4.904;2023-12-20T02:17:41;5.60;99.90
11840;DHT22;5979;50.800;4.904;2023-12-20T02:20:07;5.60;99.90
11840;DHT22;5979;50.800;4.904;2023-12-20T02:22:32;5.60;99.90
11840;DHT22;5979;50.800;4.904;2023-12-20T02:24:58;5.60;99.90
11840;DHT22;5979;50.800;4.904;2023-12-20T02:27:24;5.60;99.90
11840;DHT22;5979;50.800;4.904;2023-12-20T02:29:50;5.50;99.90
11840;DHT22;5979;50.800;4.904;2023-12-20T02:32:19;5.50;99.90
11840;DHT22;5979;50.800;4.904;2023-12-20T02:34:47;5.50;99.90
11840;DHT22;5979;50.800;4.904;2023-12-20T02:37:13;5.50;99.90
11840;DHT22;5979;50.800;4.904;2023-12-20T02:39:38;5.50;99.90
11840;DHT22;5979;50.800;4.904;2023-12-20T02:42:04;5.50;99.90
11840;DHT22;5979;50.800;4.904;2023-12-20T02:44:30;5.50;99.90
11840;DHT22;5979;50.800;4.904;2023-12-20T02:46:55;5.50;99.90
11840;DHT22;5979;50.800;4.904;2023-12-20T02:49:21;5.50;99.90
11840;DHT22;5979;50.800;4.904;2023-12-20T02:51:47;5.40;99.90
11840;DHT22;5979;50.800;4.904;2023-12-20T02:54:12;5.40;99.90
11840;DHT22;5979;50.800;4.904;2023-12-20T02:56:38;5.40;99.90
11840;DHT22;5979;50.800;4.904;2023-12-20T02:59:04;5.40;99.90
11840;DHT22;5979;50.800;4.904;2023-12-20T03:01:34;5.50;99.90
11840;DHT22;5979;50.800;4.904;2023-12-20T03:04:00;5.50;99.90
11840;DHT22;5979;50.800;4.904;2023-12-20T03:06:26;5.50;99.90
11840;DHT22;5979;50.800;4.904;2023-12-20T03:08:52;5.60;99.90
11840;DHT22;5979;50.800;4.904;2023-12-20T03:11:17;5.60;99.90
11840;DHT22;5979;50.800;4.904;2023-12-20T03:13:43;5.70;99.90
11840;DHT22;5979;50.800;4.904;2023-12-20T03:16:10;5.70;99.90
11840;DHT22;5979;50.800;4.904;2023-12-20T03:18:36;5.80;99.90
11840;DHT22;5979;50.800;4.904;2023-12-20T03:21:02;5.80;99.90
11840;DHT22;5979;50.800;4.904;2023-12-20T03:23:28;5.80;99.90
11840;DHT22;5979;50.800;4.904;2023-12-20T03:25:56;5.90;99.90
11840;DHT22;5979;50.800;4.904;2023-12-20T03:28:22;5.90;99.90
11840;DHT22;5979;50.800;4.904;2023-12-20T03:30:48;5.90;99.90
11840;DHT22;5979;50.800;4.904;2023-12-20T03:33:14;5.80;99.90
11840;DHT22;5979;50.800;4.904;2023-12-20T03:35:40;5.80;99.90
11840;DHT22;5979;50.800;4.904;2023-12-20T03:38:06;5.80;99.90
11840;DHT22;5979;50.800;4.904;2023-12-20T03:40:32;5.80;99.90
11840;DHT22;5979;50.800;4.904;2023-12-20T03:42:57;5.70;99.90
11840;DHT22;5979;50.800;4.904;2023-12-20T03:45:25;5.80;99.90
11840;DHT22;5979;50.800;4.904;2023-12-20T03:47:51;5.80;99.90
11840;DHT22;5979;50.800;4.904;2023-12-20T03:50:23;5.70;99.90
11840;DHT22;5979;50.800;4.904;2023-12-20T03:52:49;5.70;99.90
11840;DHT22;5979;50.800;4.904;2023-12-20T03:55:15;5.80;99.90
11840;DHT22;5979;50.800;4.904;2023-12-20T03:57:41;5.80;99.90
11840;DHT22;5979;50.800;4.904;2023-12-20T04:00:10;5.80;99.90
11840;DHT22;5979;50.800;4.904;2023-12-20T04:02:37;5.80;99.90
11840;DHT22;5979;50.800;4.904;2023-12-20T04:05:03;5.80;99.90
11840;DHT22;5979;50.800;4.904;2023-12-20T04:07:34;5.80;99.90
11840;DHT22;5979;50.800;4.904;2023-12-20T04:10:00;5.80;99.90
11840;DHT22;5979;50.800;4.904;2023-12-20T04:12:27;5.80;99.90
11840;DHT22;5979;50.800;4.904;2023-12-20T04:14:53;5.80;99.90
11840;DHT22;5979;50.800;4.904;2023-12-20T04:17:20;5.80;99.90
11840;DHT22;5979;50.800;4.904;2023-12-20T04:19:46;5.70;99.90
11840;DHT22;5979;50.800;4.904;2023-12-20T04:22:11;5.70;99.90
11840;DHT22;5979;50.800;4.904;2023-12-20T04:24:37;5.70;99.90
11840;DHT22;5979;50.800;4.904;2023-12-20T04:27:03;5.70;99.90
11840;DHT22;5979;50.800;4.904;2023-12-20T04:29:29;5.70;99.90
11840;DHT22;5979;50.800;4.904;2023-12-20T04:31:54;5.70;99.90
11840;DHT22;5979;50.800;4.904;2023-12-20T04:34:22;5.70;99.90
11840;DHT22;5979;50.800;4.904;2023-12-20T04:36:47;5.70;99.90
11840;DHT22;5979;50.800;4.904;2023-12-20T04:39:13;5.70;99.90
11840;DHT22;5979;50.800;4.904;2023-12-20T04:41:40;5.60;99.90
11840;DHT22;5979;50.800;4.904;2023-12-20T04:44:06;5.60;99.90
11840;DHT22;5979;50.800;4.904;2023-12-20T04:46:32;5.60;99.90
11840;DHT22;5979;50.800;4.904;2023-12-20T04:48:57;5.60;99.90
11840;DHT22;5979;50.800;4.904;2023-12-20T04:51:23;5.60;99.90
11840;DHT22;5979;50.800;4.904;2023-12-20T04:53:49;5.60;99.90
11840;DHT22;5979;50.800;4.904;2023-12-20T04:56:14;5.60;99.90
11840;DHT22;5979;50.800;4.904;2023-12-20T04:58:40;5.60;99.90
11840;DHT22;5979;50.800;4.904;2023-12-20T05:01:06;5.60;99.90
11840;DHT22;5979;50.800;4.904;2023-12-20T05:03:32;5.60;99.90
11840;DHT22;5979;50.800;4.904;2023-12-20T05:05:58;5.60;99.90
11840;DHT22;5979;50.800;4.904;2023-12-20T05:08:24;5.70;99.90
11840;DHT22;5979;50.800;4.904;2023-12-20T05:10:52;5.60;99.90
11840;DHT22;5979;50.800;4.904;2023-12-20T05:13:18;5.60;99.90
11840;DHT22;5979;50.800;4.904;2023-12-20T05:15:46;5.60;99.90
11840;DHT22;5979;50.800;4.904;2023-12-20T05:18:12;5.60;99.90
11840;DHT22;5979;50.800;4.904;2023-12-20T05:20:38;5.60;99.90
11840;DHT22;5979;50.800;4.904;2023-12-20T05:23:04;5.60;99.90
11840;DHT22;5979;50.800;4.904;2023-12-20T05:25:30;5.60;99.90
11840;DHT22;5979;50.800;4.904;2023-12-20T05:27:56;5.50;99.90
11840;DHT22;5979;50.800;4.904;2023-12-20T05:30:22;5.60;99.90
11840;DHT22;5979;50.800;4.904;2023-12-20T05:32:47;5.50;99.90
11840;DHT22;5979;50.800;4.904;2023-12-20T05:35:13;5.50;99.90
11840;DHT22;5979;50.800;4.904;2023-12-20T05:37:39;5.50;99.90
11840;DHT22;5979;50.800;4.904;2023-12-20T05:40:05;5.50;99.90
11840;DHT22;5979;50.800;4.904;2023-12-20T05:42:31;5.40;99.90
11840;DHT22;5979;50.800;4.904;2023-12-20T05:44:57;5.40;99.90
11840;DHT22;5979;50.800;4.904;2023-12-20T05:47:22;5.40;99.90
11840;DHT22;5979;50.800;4.904;2023-12-20T05:49:48;5.40;99.90
11840;DHT22;5979;50.800;4.904;2023-12-20T05:52:15;5.30;99.90
11840;DHT22;5979;50.800;4.904;2023-12-20T05:54:41;5.30;99.90
11840;DHT22;5979;50.800;4.904;2023-12-20T05:57:06;5.40;99.90
11840;DHT22;5979;50.800;4.904;2023-12-20T05:59:32;5.30;99.90
11840;DHT22;5979;50.800;4.904;2023-12-20T06:01:58;5.30;99.90
11840;DHT22;5979;50.800;4.904;2023-12-20T06:04:23;5.30;99.90
11840;DHT22;5979;50.800;4.904;2023-12-20T06:06:49;5.30;99.90
11840;DHT22;5979;50.800;4.904;2023-12-20T06:09:14;5.30;99.90
11840;DHT22;5979;50.800;4.904;2023-12-20T06:11:40;5.40;99.90
11840;DHT22;5979;50.800;4.904;2023-12-20T06:14:06;5.30;99.90
11840;DHT22;5979;50.800;4.904;2023-12-20T06:16:32;5.40;99.90
11840;DHT22;5979;50.800;4.904;2023-12-20T06:18:58;5.40;99.90
11840;DHT22;5979;50.800;4.904;2023-12-20T06:21:23;5.40;99.90
11840;DHT22;5979;50.800;4.904;2023-12-20T06:23:49;5.40;99.90
11840;DHT22;5979;50.800;4.904;2023-12-20T06:26:15;5.40;99.90
11840;DHT22;5979;50.800;4.904;2023-12-20T06:28:41;5.40;99.90
11840;DHT22;5979;50.800;4.904;2023-12-20T06:31:06;5.40;99.90
11840;DHT22;5979;50.800;4.904;2023-12-20T06:33:32;5.50;99.90
11840;DHT22;5979;50.800;4.904;2023-12-20T06:35:57;5.50;99.90
11840;DHT22;5979;50.800;4.904;2023-12-20T06:38:23;5.50;99.90
11840;DHT22;5979;50.800;4.904;2023-12-20T06:40:49;5.60;99.90
11840;DHT22;5979;50.800;4.904;2023-12-20T06:43:14;5.60;99.90
11840;DHT22;5979;50.800;4.904;2023-12-20T06:45:40;5.60;99.90
11840;DHT22;5979;50.800;4.904;2023-12-20T06:48:06;5.60;99.90
11840;DHT22;5979;50.800;4.904;2023-12-20T06:50:32;5.70;99.90
11840;DHT22;5979;50.800;4.904;2023-12-20T06:52:58;5.70;99.90
11840;DHT22;5979;50.800;4.904;2023-12-20T06:55:24;5.70;99.90
11840;DHT22;5979;50.800;4.904;2023-12-20T06:57:49;5.70;99.90
11840;DHT22;5979;50.800;4.904;2023-12-20T07:00:15;5.70;99.90
11840;DHT22;5979;50.800;4.904;2023-12-20T07:02:41;5.60;99.90
11840;DHT22;5979;50.800;4.904;2023-12-20T07:05:07;5.60;99.90
11840;DHT22;5979;50.800;4.904;2023-12-20T07:07:33;5.50;99.90
11840;DHT22;5979;50.800;4.904;2023-12-20T07:09:58;5.50;99.90
11840;DHT22;5979;50.800;4.904;2023-12-20T07:12:24;5.40;99.90
11840;DHT22;5979;50.800;4.904;2023-12-20T07:14:50;5.40;99.90
11840;DHT22;5979;50.800;4.904;2023-12-20T07:17:16;5.40;99.90
11840;DHT22;5979;50.800;4.904;2023-12-20T07:19:41;5.30;99.90
11840;DHT22;5979;50.800;4.904;2023-12-20T07:22:07;5.30;99.90
11840;DHT22;5979;50.800;4.904;2023-12-20T07:24:33;5.30;99.90
11840;DHT22;5979;50.800;4.904;2023-12-20T07:27:00;5.30;99.90
11840;DHT22;5979;50.800;4.904;2023-12-20T07:29:25;5.30;99.90
11840;DHT22;5979;50.800;4.904;2023-12-20T07:31:53;5.20;99.90
11840;DHT22;5979;50.800;4.904;2023-12-20T07:34:22;5.20;99.90
11840;DHT22;5979;50.800;4.904;2023-12-20T07:36:48;5.20;99.90
11840;DHT22;5979;50.800;4.904;2023-12-20T07:39:14;5.20;99.90
11840;DHT22;5979;50.800;4.904;2023-12-20T07:41:40;5.20;99.90
11840;DHT22;5979;50.800;4.904;2023-12-20T07:44:06;5.20;99.90
11840;DHT22;5979;50.800;4.904;2023-12-20T07:46:32;5.20;99.90
11840;DHT22;5979;50.800;4.904;2023-12-20T07:48:57;5.30;99.90
11840;DHT22;5979;50.800;4.904;2023-12-20T07:51:23;5.30;99.90
11840;DHT22;5979;50.800;4.904;2023-12-20T07:53:49;5.40;99.90
11840;DHT22;5979;50.800;4.904;2023-12-20T07:56:18;5.40;99.90
11840;DHT22;5979;50.800;4.904;2023-12-20T07:58:45;5.40;99.90
11840;DHT22;5979;50.800;4.904;2023-12-20T08:01:11;5.30;99.90
11840;DHT22;5979;50.800;4.904;2023-12-20T08:03:38;5.30;99.90
11840;DHT22;5979;50.800;4.904;2023-12-20T08:06:09;5.30;99.90
11840;DHT22;5979;50.800;4.904;2023-12-20T08:08:35;5.30;99.90
11840;DHT22;5979;50.800;4.904;2023-12-20T08:11:00;5.30;99.90
11840;DHT22;5979;50.800;4.904;2023-12-20T08:13:26;5.30;99.90
11840;DHT22;5979;50.800;4.904;2023-12-20T08:15:53;5.30;99.90
11840;DHT22;5979;50.800;4.904;2023-12-20T08:18:19;5.30;99.90
11840;DHT22;5979;50.800;4.904;2023-12-20T08:20:44;5.30;99.90
11840;DHT22;5979;50.800;4.904;2023-12-20T08:23:10;5.40;99.90
11840;DHT22;5979;50.800;4.904;2023-12-20T08:25:36;5.40;99.90
11840;DHT22;5979;50.800;4.904;2023-12-20T08:28:05;5.40;99.90
11840;DHT22;5979;50.800;4.904;2023-12-20T08:30:31;5.50;99.90
11840;DHT22;5979;50.800;4.904;2023-12-20T08:33:00;5.50;99.90
11840;DHT22;5979;50.800;4.904;2023-12-20T08:35:26;5.50;99.90
11840;DHT22;5979;50.800;4.904;2023-12-20T08:37:51;5.50;99.90
11840;DHT22;5979;50.800;4.904;2023-12-20T08:40:17;5.50;99.90
11840;DHT22;5979;50.800;4.904;2023-12-20T08:42:43;5.60;99.90
11840;DHT22;5979;50.800;4.904;2023-12-20T08:45:10;5.60;99.90
11840;DHT22;5979;50.800;4.904;2023-12-20T08:47:35;5.70;99.90
11840;DHT22;5979;50.800;4.904;2023-12-20T08:50:02;5.70;99.90
11840;DHT22;5979;50.800;4.904;2023-12-20T08:52:28;5.80;99.90
11840;DHT22;5979;50.800;4.904;2023-12-20T08:54:55;5.80;99.90
11840;DHT22;5979;50.800;4.904;2023-12-20T08:57:21;5.90;99.90
11840;DHT22;5979;50.800;4.904;2023-12-20T08:59:47;6.00;99.90
11840;DHT22;5979;50.800;4.904;2023-12-20T09:02:13;6.00;99.90
11840;DHT22;5979;50.800;4.904;2023-12-20T09:04:39;6.10;99.90
11840;DHT22;5979;50.800;4.904;2023-12-20T09:07:23;6.10;99.90
11840;DHT22;5979;50.800;4.904;2023-12-20T09:09:49;6.20;99.90
11840;DHT22;5979;50.800;4.904;2023-12-20T09:12:14;6.30;99.90
11840;DHT22;5979;50.800;4.904;2023-12-20T09:14:40;6.40;99.90
11840;DHT22;5979;50.800;4.904;2023-12-20T09:17:06;6.50;99.90
11840;DHT22;5979;50.800;4.904;2023-12-20T09:19:34;6.50;99.90
11840;DHT22;5979;50.800;4.904;2023-12-20T09:22:00;6.60;99.90
11840;DHT22;5979;50.800;4.904;2023-12-20T09:24:27;6.60;99.90
11840;DHT22;5979;50.800;4.904;2023-12-20T09:26:52;6.60;99.90
11840;DHT22;5979;50.800;4.904;2023-12-20T09:29:18;6.60;99.90
11840;DHT22;5979;50.800;4.904;2023-12-20T09:31:44;6.60;99.90
11840;DHT22;5979;50.800;4.904;2023-12-20T09:34:11;6.70;99.90
11840;DHT22;5979;50.800;4.904;2023-12-20T09:36:37;6.70;99.90
11840;DHT22;5979;50.800;4.904;2023-12-20T09:39:06;6.70;99.90
11840;DHT22;5979;50.800;4.904;2023-12-20T09:41:36;6.80;99.90
11840;DHT22;5979;50.800;4.904;2023-12-20T09:44:03;6.80;99.90
11840;DHT22;5979;50.800;4.904;2023-12-20T09:46:35;6.80;99.90
11840;DHT22;5979;50.800;4.904;2023-12-20T09:49:05;6.90;99.90
11840;DHT22;5979;50.800;4.904;2023-12-20T09:51:31;6.90;99.90
11840;DHT22;5979;50.800;4.904;2023-12-20T09:53:57;6.90;99.90
11840;DHT22;5979;50.800;4.904;2023-12-20T09:56:25;7.00;99.90
11840;DHT22;5979;50.800;4.904;2023-12-20T09:58:51;7.00;99.90
11840;DHT22;5979;50.800;4.904;2023-12-20T10:01:17;7.10;99.90
11840;DHT22;5979;50.800;4.904;2023-12-20T10:03:44;7.10;99.90
11840;DHT22;5979;50.800;4.904;2023-12-20T10:06:10;7.20;99.90
11840;DHT22;5979;50.800;4.904;2023-12-20T10:08:36;7.20;99.90
11840;DHT22;5979;50.800;4.904;2023-12-20T10:11:01;7.30;99.90
11840;DHT22;5979;50.800;4.904;2023-12-20T10:13:29;7.30;99.90
11840;DHT22;5979;50.800;4.904;2023-12-20T10:15:55;7.30;99.90
11840;DHT22;5979;50.800;4.904;2023-12-20T10:18:21;7.30;99.90
11840;DHT22;5979;50.800;4.904;2023-12-20T10:20:47;7.40;99.90
11840;DHT22;5979;50.800;4.904;2023-12-20T10:23:13;7.50;99.90
11840;DHT22;5979;50.800;4.904;2023-12-20T10:25:40;7.50;99.90
11840;DHT22;5979;50.800;4.904;2023-12-20T10:28:16;7.60;99.90
11840;DHT22;5979;50.800;4.904;2023-12-20T10:30:46;7.60;99.90
11840;DHT22;5979;50.800;4.904;2023-12-20T10:33:12;7.70;99.90
11840;DHT22;5979;50.800;4.904;2023-12-20T10:35:39;7.80;99.90
11840;DHT22;5979;50.800;4.904;2023-12-20T10:38:06;7.80;99.90
11840;DHT22;5979;50.800;4.904;2023-12-20T10:40:36;7.80;99.90
11840;DHT22;5979;50.800;4.904;2023-12-20T10:43:03;7.70;99.90
11840;DHT22;5979;50.800;4.904;2023-12-20T10:45:29;7.70;99.90
11840;DHT22;5979;50.800;4.904;2023-12-20T10:51:15;7.70;99.90
11840;DHT22;5979;50.800;4.904;2023-12-20T10:53:43;7.70;99.90
11840;DHT22;5979;50.800;4.904;2023-12-20T10:56:13;7.80;99.90
11840;DHT22;5979;50.800;4.904;2023-12-20T10:58:42;7.80;99.90
11840;DHT22;5979;50.800;4.904;2023-12-20T11:01:09;7.80;99.90
11840;DHT22;5979;50.800;4.904;2023-12-20T11:03:36;7.80;99.90
11840;DHT22;5979;50.800;4.904;2023-12-20T11:06:20;7.80;99.90
11840;DHT22;5979;50.800;4.904;2023-12-20T11:14:39;7.80;99.90
11840;DHT22;5979;50.800;4.904;2023-12-20T11:17:08;7.80;99.90
11840;DHT22;5979;50.800;4.904;2023-12-20T11:19:36;7.90;99.90
11840;DHT22;5979;50.800;4.904;2023-12-20T11:22:04;7.80;99.90
11840;DHT22;5979;50.800;4.904;2023-12-20T11:24:31;7.90;99.90
11840;DHT22;5979;50.800;4.904;2023-12-20T11:27:00;7.90;99.90
11840;DHT22;5979;50.800;4.904;2023-12-20T11:29:30;7.90;99.90
11840;DHT22;5979;50.800;4.904;2023-12-20T11:31:56;7.90;99.90
11840;DHT22;5979;50.800;4.904;2023-12-20T11:34:22;7.90;99.90
11840;DHT22;5979;50.800;4.904;2023-12-20T11:36:57;7.90;99.90
11840;DHT22;5979;50.800;4.904;2023-12-20T11:39:26;7.90;99.90
11840;DHT22;5979;50.800;4.904;2023-12-20T11:41:55;8.00;99.90
11840;DHT22;5979;50.800;4.904;2023-12-20T11:44:21;8.00;99.90
11840;DHT22;5979;50.800;4.904;2023-12-20T11:46:47;8.00;99.90
11840;DHT22;5979;50.800;4.904;2023-12-20T11:49:13;8.00;99.90
11840;DHT22;5979;50.800;4.904;2023-12-20T11:51:42;8.00;99.90
11840;DHT22;5979;50.800;4.904;2023-12-20T11:54:09;8.00;99.90
11840;DHT22;5979;50.800;4.904;2023-12-20T11:56:36;8.10;99.90
11840;DHT22;5979;50.800;4.904;2023-12-20T11:59:02;8.10;99.90
11840;DHT22;5979;50.800;4.904;2023-12-20T12:01:28;8.10;99.90
11840;DHT22;5979;50.800;4.904;2023-12-20T12:04:07;8.10;99.90
11840;DHT22;5979;50.800;4.904;2023-12-20T12:06:33;8.10;99.90
11840;DHT22;5979;50.800;4.904;2023-12-20T12:08:59;8.10;99.90
11840;DHT22;5979;50.800;4.904;2023-12-20T12:11:24;8.10;99.90
11840;DHT22;5979;50.800;4.904;2023-12-20T12:13:50;8.00;99.90
11840;DHT22;5979;50.800;4.904;2023-12-20T12:16:22;8.10;99.90
11840;DHT22;5979;50.800;4.904;2023-12-20T12:18:58;8.10;99.90
11840;DHT22;5979;50.800;4.904;2023-12-20T12:21:25;8.10;99.90
11840;DHT22;5979;50.800;4.904;2023-12-20T12:23:51;8.10;99.90
11840;DHT22;5979;50.800;4.904;2023-12-20T12:26:16;8.20;99.90
11840;DHT22;5979;50.800;4.904;2023-12-20T12:28:42;8.30;99.90
11840;DHT22;5979;50.800;4.904;2023-12-20T12:31:09;8.40;99.90
11840;DHT22;5979;50.800;4.904;2023-12-20T12:33:39;8.40;99.90
11840;DHT22;5979;50.800;4.904;2023-12-20T12:36:07;8.50;99.90
11840;DHT22;5979;50.800;4.904;2023-12-20T12:38:33;8.60;99.90
11840;DHT22;5979;50.800;4.904;2023-12-20T12:41:00;8.50;99.90
11840;DHT22;5979;50.800;4.904;2023-12-20T12:43:26;8.50;99.90
11840;DHT22;5979;50.800;4.904;2023-12-20T12:45:52;8.50;99.90
11840;DHT22;5979;50.800;4.904;2023-12-20T12:48:18;8.50;99.90
11840;DHT22;5979;50.800;4.904;2023-12-20T12:50:45;8.50;99.90
11840;DHT22;5979;50.800;4.904;2023-12-20T12:53:10;8.50;99.90
11840;DHT22;5979;50.800;4.904;2023-12-20T12:55:36;8.50;99.90
11840;DHT22;5979;50.800;4.904;2023-12-20T12:58:05;8.50;99.90
11840;DHT22;5979;50.800;4.904;2023-12-20T13:00:30;8.40;99.90
11840;DHT22;5979;50.800;4.904;2023-12-20T13:02:56;8.40;99.90
11840;DHT22;5979;50.800;4.904;2023-12-20T13:05:22;8.40;99.90
11840;DHT22;5979;50.800;4.904;2023-12-20T13:07:47;8.40;99.90
11840;DHT22;5979;50.800;4.904;2023-12-20T13:10:13;8.30;99.90
11840;DHT22;5979;50.800;4.904;2023-12-20T13:12:42;8.30;99.90
11840;DHT22;5979;50.800;4.904;2023-12-20T13:15:08;8.30;99.90
11840;DHT22;5979;50.800;4.904;2023-12-20T13:17:34;8.30;99.90
11840;DHT22;5979;50.800;4.904;2023-12-20T13:20:00;8.20;99.90
11840;DHT22;5979;50.800;4.904;2023-12-20T13:22:26;8.20;99.90
11840;DHT22;5979;50.800;4.904;2023-12-20T13:24:51;8.30;99.90
11840;DHT22;5979;50.800;4.904;2023-12-20T13:27:17;8.30;99.90
11840;DHT22;5979;50.800;4.904;2023-12-20T13:29:43;8.20;99.90
11840;DHT22;5979;50.800;4.904;2023-12-20T13:32:08;8.30;99.90
11840;DHT22;5979;50.800;4.904;2023-12-20T13:34:34;8.20;99.90
11840;DHT22;5979;50.800;4.904;2023-12-20T13:37:00;8.20;99.90
11840;DHT22;5979;50.800;4.904;2023-12-20T13:39:26;8.20;99.90
11840;DHT22;5979;50.800;4.904;2023-12-20T13:41:51;8.20;99.90
11840;DHT22;5979;50.800;4.904;2023-12-20T13:44:17;8.20;99.90
11840;DHT22;5979;50.800;4.904;2023-12-20T13:46:43;8.20;99.90
11840;DHT22;5979;50.800;4.904;2023-12-20T13:49:09;8.20;99.90
11840;DHT22;5979;50.800;4.904;2023-12-20T13:51:34;8.20;99.90
11840;DHT22;5979;50.800;4.904;2023-12-20T13:54:00;8.20;99.90
11840;DHT22;5979;50.800;4.904;2023-12-20T13:56:26;8.20;99.90
11840;DHT22;5979;50.800;4.904;2023-12-20T13:58:52;8.20;99.90
11840;DHT22;5979;50.800;4.904;2023-12-20T14:01:17;8.20;99.90
11840;DHT22;5979;50.800;4.904;2023-12-20T14:03:43;8.20;99.90
11840;DHT22;5979;50.800;4.904;2023-12-20T14:06:09;8.20;99.90
11840;DHT22;5979;50.800;4.904;2023-12-20T14:08:34;8.20;99.90
11840;DHT22;5979;50.800;4.904;2023-12-20T14:11:01;8.20;99.90
11840;DHT22;5979;50.800;4.904;2023-12-20T14:13:27;8.20;99.90
11840;DHT22;5979;50.800;4.904;2023-12-20T14:15:53;8.10;99.90
11840;DHT22;5979;50.800;4.904;2023-12-20T14:18:20;8.20;99.90
11840;DHT22;5979;50.800;4.904;2023-12-20T14:20:46;8.10;99.90
11840;DHT22;5979;50.800;4.904;2023-12-20T14:23:13;8.10;99.90
11840;DHT22;5979;50.800;4.904;2023-12-20T14:25:42;8.10;99.90
11840;DHT22;5979;50.800;4.904;2023-12-20T14:28:07;8.10;99.90
11840;DHT22;5979;50.800;4.904;2023-12-20T14:30:33;8.10;99.90
11840;DHT22;5979;50.800;4.904;2023-12-20T14:33:00;8.10;99.90
11840;DHT22;5979;50.800;4.904;2023-12-20T14:35:26;8.10;99.90
11840;DHT22;5979;50.800;4.904;2023-12-20T14:37:51;8.10;99.90
11840;DHT22;5979;50.800;4.904;2023-12-20T14:40:17;8.10;99.90
11840;DHT22;5979;50.800;4.904;2023-12-20T14:42:43;8.10;99.90
11840;DHT22;5979;50.800;4.904;2023-12-20T14:45:10;8.20;99.90
11840;DHT22;5979;50.800;4.904;2023-12-20T14:47:39;8.10;99.90
11840;DHT22;5979;50.800;4.904;2023-12-20T14:50:05;8.20;99.90
11840;DHT22;5979;50.800;4.904;2023-12-20T14:52:32;8.20;99.90
11840;DHT22;5979;50.800;4.904;2023-12-20T14:55:02;8.20;99.90
11840;DHT22;5979;50.800;4.904;2023-12-20T14:57:29;8.20;99.90
11840;DHT22;5979;50.800;4.904;2023-12-20T15:00:00;8.30;99.90
11840;DHT22;5979;50.800;4.904;2023-12-20T15:02:25;8.30;99.90
11840;DHT22;5979;50.800;4.904;2023-12-20T15:04:51;8.20;99.90
11840;DHT22;5979;50.800;4.904;2023-12-20T15:07:17;8.20;99.90
11840;DHT22;5979;50.800;4.904;2023-12-20T15:09:42;8.30;99.90
11840;DHT22;5979;50.800;4.904;2023-12-20T15:12:11;8.20;99.90
11840;DHT22;5979;50.800;4.904;2023-12-20T15:14:38;8.20;99.90
11840;DHT22;5979;50.800;4.904;2023-12-20T15:17:03;8.20;99.90
11840;DHT22;5979;50.800;4.904;2023-12-20T15:19:31;8.30;99.90
11840;DHT22;5979;50.800;4.904;2023-12-20T15:21:56;8.30;99.90
11840;DHT22;5979;50.800;4.904;2023-12-20T15:24:24;8.20;99.90
11840;DHT22;5979;50.800;4.904;2023-12-20T15:26:54;8.20;99.90
11840;DHT22;5979;50.800;4.904;2023-12-20T15:29:21;8.20;99.90
11840;DHT22;5979;50.800;4.904;2023-12-20T15:31:47;8.20;99.90
11840;DHT22;5979;50.800;4.904;2023-12-20T15:34:14;8.20;99.90
11840;DHT22;5979;50.800;4.904;2023-12-20T15:36:40;8.20;99.90
11840;DHT22;5979;50.800;4.904;2023-12-20T15:39:06;8.20;99.90
11840;DHT22;5979;50.800;4.904;2023-12-20T15:41:34;8.20;99.90
11840;DHT22;5979;50.800;4.904;2023-12-20T15:44:00;8.30;99.90
11840;DHT22;5979;50.800;4.904;2023-12-20T15:46:25;8.20;99.90
11840;DHT22;5979;50.800;4.904;2023-12-20T15:48:51;8.20;99.90
11840;DHT22;5979;50.800;4.904;2023-12-20T15:51:20;8.20;99.90
11840;DHT22;5979;50.800;4.904;2023-12-20T15:53:46;8.20;99.90
11840;DHT22;5979;50.800;4.904;2023-12-20T15:56:12;8.30;99.90
11840;DHT22;5979;50.800;4.904;2023-12-20T15:58:37;8.30;99.90
11840;DHT22;5979;50.800;4.904;2023-12-20T16:01:03;8.30;99.90
11840;DHT22;5979;50.800;4.904;2023-12-20T16:03:29;8.30;99.90
11840;DHT22;5979;50.800;4.904;2023-12-20T16:05:55;8.30;99.90